Time;durP1;ratioP1;P1;durP2;ratioP2;P2;SDS_P1;SDS_P2;PMS_P1;PMS_P2;Temp;Humidity;BMP_temperature;BMP_pressure;BME280_temperature;BME280_humidity;BME280_pressure;Samples;Min_cycle;Max_cycle;Signal;HPM_P1;HPM_P2
2021/01/12 00:05:56;;;;;;;38.00;17.85;;;;;;;-0.53;74.58;100578.31;18602884;28;20050;-70
2021/01/12 00:14:57;;;;;;;36.20;17.40;;;;;;;-0.43;74.27;100573.13;18547321;28;20055;-70
2021/01/12 00:23:58;;;;;;;35.35;17.42;;;;;;;-0.45;74.95;100563.69;18524057;28;20051;-70
2021/01/12 00:32:59;;;;;;;38.72;17.67;;;;;;;-0.48;75.99;100543.16;18529025;28;20042;-71
2021/01/12 00:42:00;;;;;;;36.47;17.63;;;;;;;-0.43;76.66;100536.25;18528979;28;20047;-71
2021/01/12 00:51:01;;;;;;;32.75;16.92;;;;;;;-0.51;78.65;100514.91;18528632;28;20089;-71
2021/01/12 01:00:03;;;;;;;36.10;16.13;;;;;;;-0.40;77.90;100512.22;18527317;28;20484;-70
2021/01/12 01:09:04;;;;;;;35.03;16.77;;;;;;;-0.45;79.18;100543.13;18526091;28;20066;-71
2021/01/12 01:18:05;;;;;;;32.72;16.05;;;;;;;-0.43;78.62;100557.69;18526714;28;20081;-71
2021/01/12 01:27:05;;;;;;;34.83;17.48;;;;;;;-0.39;79.19;100545.66;18526183;28;20051;-71
2021/01/12 01:36:10;;;;;;;34.85;16.63;;;;;;;-0.45;80.74;100535.41;18524292;28;20062;-70
2021/01/12 01:45:12;;;;;;;34.60;17.33;;;;;;;-0.44;81.71;100526.84;18524708;28;20498;-71
2021/01/12 01:54:14;;;;;;;33.80;16.50;;;;;;;-0.52;82.39;100502.91;18524271;28;20534;-70
2021/01/12 02:03:24;;;;;;;38.03;17.85;;;;;;;-0.52;81.43;100484.94;18522060;28;20055;-69
2021/01/12 02:12:46;;;;;;;36.83;17.05;;;;;;;-0.50;81.26;100467.75;18522782;28;20090;-69
2021/01/12 02:21:49;;;;;;;36.72;17.52;;;;;;;-0.45;79.97;100445.44;18521911;28;20090;-70
2021/01/12 02:30:50;;;;;;;;;;;;;;;-0.41;78.99;100434.28;18521025;28;20042;-70
2021/01/12 02:39:59;;;;;;;30.77;15.43;;;;;;;-0.39;78.00;100439.38;18521620;28;19929;-70
2021/01/12 02:49:00;;;;;;;30.58;15.05;;;;;;;-0.38;77.20;100431.66;18520407;28;20065;-70
2021/01/12 02:58:01;;;;;;;33.90;15.95;;;;;;;-0.28;75.98;100405.00;18520337;28;20142;-71
2021/01/12 03:07:02;;;;;;;34.88;16.05;;;;;;;-0.30;76.04;100403.28;18519076;28;20051;-70
2021/01/12 03:16:03;;;;;;;32.40;14.98;;;;;;;-0.27;76.39;100399.00;18502350;28;20495;-70
2021/01/12 03:25:05;;;;;;;32.88;14.80;;;;;;;-0.23;76.42;100369.78;18535731;28;20082;-70
2021/01/12 03:34:06;;;;;;;33.10;15.25;;;;;;;-0.15;76.38;100365.41;18542174;28;20058;-70
2021/01/12 03:43:07;;;;;;;30.38;14.77;;;;;;;-0.16;75.88;100345.72;18541984;28;20062;-70
2021/01/12 03:52:08;;;;;;;32.38;15.20;;;;;;;-0.14;76.39;100325.09;18542449;28;20077;-70
2021/01/12 04:01:13;;;;;;;31.33;13.90;;;;;;;-0.10;78.15;100307.03;18541400;28;20495;-70
2021/01/12 04:10:15;;;;;;;33.42;15.43;;;;;;;-0.13;78.98;100298.53;18541291;28;20055;-70
2021/01/12 04:19:16;;;;;;;32.85;15.00;;;;;;;-0.13;81.99;100299.38;18541364;28;20043;-70
2021/01/12 04:28:17;;;;;;;32.13;14.52;;;;;;;-0.23;84.32;100259.22;18541541;28;20511;-71
2021/01/12 04:37:18;;;;;;;32.72;15.50;;;;;;;-0.30;87.21;100246.44;18529855;28;20051;-70
2021/01/12 04:46:19;;;;;;;33.10;15.32;;;;;;;-0.47;90.99;100215.81;18528919;28;20094;-70
2021/01/12 04:55:21;;;;;;;32.85;15.50;;;;;;;-0.48;92.56;100220.09;18528377;28;20546;-70
2021/01/12 05:04:23;;;;;;;32.75;16.08;;;;;;;-0.45;94.46;100198.63;18526676;28;20050;-70
2021/01/12 05:13:26;;;;;;;34.60;15.65;;;;;;;-0.51;95.73;100188.47;18527016;28;20098;-70
2021/01/12 05:22:31;;;;;;;34.17;15.65;;;;;;;-0.58;98.26;100171.41;18526285;28;20541;-70
2021/01/12 05:31:37;;;;;;;33.70;14.90;;;;;;;-0.49;100.00;100171.28;18524934;28;20632;-70
2021/01/12 05:40:40;;;;;;;32.28;16.02;;;;;;;-0.53;100.00;100159.34;18526060;28;20062;-70
2021/01/12 05:49:45;;;;;;;30.25;14.90;;;;;;;-0.53;100.00;100156.78;18524499;28;20046;-70
2021/01/12 05:58:51;;;;;;;31.30;14.60;;;;;;;-0.38;100.00;100133.41;18523775;28;20070;-70
2021/01/12 06:07:52;;;;;;;34.45;15.52;;;;;;;-0.48;100.00;100106.16;18522428;28;20046;-70
2021/01/12 06:16:54;;;;;;;32.72;15.88;;;;;;;-0.40;100.00;100113.72;18522027;28;20560;-70
2021/01/12 06:25:57;;;;;;;32.70;15.87;;;;;;;-0.40;100.00;100098.31;18521554;28;20518;-70
2021/01/12 06:35:00;;;;;;;29.30;14.32;;;;;;;-0.31;100.00;100101.63;18520940;28;20057;-70
2021/01/12 06:44:16;;;;;;;31.50;15.38;;;;;;;-0.30;100.00;100105.00;18521240;28;20050;-71
2021/01/12 06:53:17;;;;;;;33.38;14.57;;;;;;;-0.20;100.00;100101.44;18520746;28;20541;-71
2021/01/12 07:02:19;;;;;;;28.23;14.07;;;;;;;-0.18;100.00;100079.13;18511545;28;20039;-70
2021/01/12 07:11:21;;;;;;;28.70;13.95;;;;;;;-0.13;100.00;100067.03;18520266;28;20047;-71
2021/01/12 07:20:24;;;;;;;26.23;13.10;;;;;;;-0.16;100.00;100074.81;18520211;28;20071;-71
2021/01/12 07:29:25;;;;;;;24.90;12.70;;;;;;;-0.02;100.00;100078.84;18503414;28;20422;-71
2021/01/12 07:38:29;;;;;;;26.80;12.35;;;;;;;0.03;100.00;100054.78;18500945;28;20419;-72
2021/01/12 07:47:31;;;;;;;28.92;12.65;;;;;;;-0.05;100.00;100050.59;18520481;28;20046;-72
2021/01/12 07:56:36;;;;;;;23.80;12.38;;;;;;;-0.05;100.00;100035.16;18503183;28;20563;-73
2021/01/12 08:05:37;;;;;;;23.17;11.43;;;;;;;-0.09;100.00;100023.22;18519637;28;20065;-72
2021/01/12 08:14:38;;;;;;;34.97;15.85;;;;;;;-0.09;100.00;100018.09;18534771;28;20054;-73
2021/01/12 08:23:39;;;;;;;25.88;13.50;;;;;;;-0.01;100.00;100015.41;18534310;28;20053;-74
2021/01/12 08:32:45;;;;;;;23.23;10.52;;;;;;;-0.01;100.00;100003.38;18532608;28;20061;-74
2021/01/12 08:41:48;;;;;;;18.23;9.25;;;;;;;0.08;100.00;100001.50;18533310;28;20419;-74
2021/01/12 08:50:49;;;;;;;17.23;8.80;;;;;;;0.06;100.00;99998.97;18533804;28;20047;-74
2021/01/12 08:59:50;;;;;;;18.17;9.35;;;;;;;0.06;100.00;99995.53;18514114;28;20055;-73
2021/01/12 09:08:51;;;;;;;13.93;7.15;;;;;;;0.02;100.00;100001.63;18533476;28;20039;-73
2021/01/12 09:18:05;;;;;;;16.88;8.18;;;;;;;0.15;100.00;100003.13;18541636;28;20058;-73
2021/01/12 09:27:06;;;;;;;14.13;7.07;;;;;;;0.15;100.00;100010.84;18520261;28;20047;-73
2021/01/12 09:36:12;;;;;;;11.40;5.78;;;;;;;0.17;100.00;100009.06;18526873;28;20054;-73
2021/01/12 09:45:13;;;;;;;11.52;5.50;;;;;;;0.12;100.00;99995.44;18523466;28;20049;-73
2021/01/12 09:54:14;;;;;;;9.82;5.18;;;;;;;0.12;100.00;99990.28;18524527;28;20047;-73
2021/01/12 10:03:16;;;;;;;10.80;5.90;;;;;;;0.23;100.00;99999.50;18581108;28;20561;-74
2021/01/12 10:12:17;;;;;;;9.27;4.82;;;;;;;0.20;100.00;99989.28;18583459;28;20513;-75
2021/01/12 10:21:19;;;;;;;10.48;4.72;;;;;;;0.27;100.00;99979.69;18528068;28;20056;-75
2021/01/12 10:30:20;;;;;;;9.20;4.63;;;;;;;0.40;100.00;99953.72;18525886;28;20058;-75
2021/01/12 10:39:21;;;;;;;9.20;4.32;;;;;;;0.49;100.00;99955.25;18520936;28;20053;-73
2021/01/12 10:48:22;;;;;;;7.05;3.60;;;;;;;0.51;100.00;99943.16;18543147;28;20042;-74
2021/01/12 10:57:23;;;;;;;7.05;3.70;;;;;;;0.56;100.00;99925.91;18513036;28;20097;-73
2021/01/12 11:06:24;;;;;;;6.53;3.20;;;;;;;0.58;100.00;99925.88;18519419;28;20422;-72
2021/01/12 11:15:26;;;;;;;7.15;3.20;;;;;;;0.62;100.00;99889.72;18526887;28;20047;-72
2021/01/12 11:24:27;;;;;;;5.95;3.20;;;;;;;0.69;100.00;99895.59;18503429;28;20051;-72
2021/01/12 11:33:28;;;;;;;7.80;3.35;;;;;;;0.64;100.00;99877.66;18518692;28;20085;-72
2021/01/12 11:42:29;;;;;;;6.43;3.13;;;;;;;0.66;100.00;99872.50;18521715;28;20050;-72
2021/01/12 11:51:34;;;;;;;5.30;2.85;;;;;;;0.79;100.00;99856.72;18533472;28;20046;-72
2021/01/12 12:00:35;;;;;;;5.38;2.83;;;;;;;0.82;100.00;99840.31;18531607;28;20507;-72
2021/01/12 12:09:36;;;;;;;6.07;2.80;;;;;;;0.82;100.00;99815.41;18532060;28;20126;-72
2021/01/12 12:18:42;;;;;;;5.35;2.70;;;;;;;0.85;100.00;99815.38;18567888;28;20043;-72
2021/01/12 12:27:43;;;;;;;5.53;2.70;;;;;;;0.90;100.00;99812.66;18599942;28;20081;-72
2021/01/12 12:36:45;;;;;;;6.05;2.90;;;;;;;0.89;100.00;99799.81;18616868;28;20105;-73
2021/01/12 12:45:46;;;;;;;4.47;2.17;;;;;;;0.90;100.00;99788.63;18545873;28;20042;-71
2021/01/12 12:54:47;;;;;;;4.82;2.40;;;;;;;0.77;100.00;99786.34;18527189;28;20518;-71
2021/01/12 13:03:48;;;;;;;6.18;2.72;;;;;;;0.89;100.00;99776.63;18527703;28;20122;-72
2021/01/12 13:12:50;;;;;;;5.68;3.10;;;;;;;0.87;100.00;99774.09;18572058;28;20053;-72
2021/01/12 13:21:51;;;;;;;6.05;2.72;;;;;;;0.77;100.00;99777.78;18532671;28;20043;-72
2021/01/12 13:31:06;;;;;;;6.82;3.33;;;;;;;0.79;100.00;99783.75;18519299;28;20054;-72
2021/01/12 13:40:09;;;;;;;4.25;2.15;;;;;;;0.92;100.00;99779.13;18527163;28;20530;-72
2021/01/12 13:49:10;;;;;;;5.20;2.93;;;;;;;0.88;100.00;99782.66;18525596;28;20042;-72
2021/01/12 13:58:16;;;;;;;5.25;2.70;;;;;;;0.96;100.00;99809.09;18525129;28;20054;-72
2021/01/12 14:07:18;;;;;;;3.53;1.90;;;;;;;1.03;100.00;99815.78;18523243;28;20046;-71
2021/01/12 14:16:21;;;;;;;4.20;2.25;;;;;;;1.09;100.00;99831.09;18527230;28;20488;-72
2021/01/12 14:25:27;;;;;;;5.55;2.88;;;;;;;1.12;100.00;99831.00;18505608;28;20444;-72
2021/01/12 14:34:28;;;;;;;4.38;2.53;;;;;;;1.16;100.00;99835.22;18522265;28;20105;-75
2021/01/12 14:43:29;;;;;;;5.07;2.42;;;;;;;1.15;100.00;99844.69;18521562;28;20768;-72
2021/01/12 14:52:30;;;;;;;3.78;1.70;;;;;;;1.13;100.00;99840.44;18517842;28;20046;-70
2021/01/12 15:01:42;;;;;;;4.18;2.20;;;;;;;1.11;100.00;99857.69;18517055;28;20499;-70
2021/01/12 15:10:44;;;;;;;4.73;2.50;;;;;;;1.14;100.00;99867.91;18519556;28;20525;-70
2021/01/12 15:19:46;;;;;;;4.78;2.30;;;;;;;1.10;100.00;99861.13;18523960;28;20082;-70
2021/01/12 15:28:47;;;;;;;6.60;3.65;;;;;;;1.17;100.00;99860.09;18520458;28;20047;-70
2021/01/12 15:37:48;;;;;;;4.72;2.50;;;;;;;1.21;100.00;99859.16;18505710;28;20085;-70
2021/01/12 15:46:49;;;;;;;6.78;2.67;;;;;;;1.12;100.00;99851.63;18518049;28;20494;-70
2021/01/12 15:55:50;;;;;;;6.90;3.70;;;;;;;1.20;100.00;99860.03;18517349;28;20066;-70
2021/01/12 16:04:52;;;;;;;7.22;3.60;;;;;;;1.12;100.00;99864.50;18515530;28;20415;-69
2021/01/12 16:14:02;;;;;;;9.80;5.70;;;;;;;1.11;100.00;99875.72;18544704;28;20058;-70
2021/01/12 16:23:06;;;;;;;7.72;4.07;;;;;;;1.12;100.00;99880.81;18520522;28;20054;-69
2021/01/12 16:32:08;;;;;;;10.30;5.45;;;;;;;1.15;100.00;99885.06;18524870;28;20047;-70
2021/01/12 16:41:13;;;;;;;8.60;5.50;;;;;;;1.17;100.00;99885.84;18529542;28;20427;-70
2021/01/12 16:50:15;;;;;;;8.63;5.10;;;;;;;1.30;100.00;99902.72;18528890;28;20058;-71
2021/01/12 16:59:19;;;;;;;9.13;5.38;;;;;;;1.26;100.00;99908.84;18528207;28;20129;-71
2021/01/12 17:08:20;;;;;;;10.25;5.50;;;;;;;1.30;100.00;99923.34;18527001;28;20043;-70
2021/01/12 17:17:22;;;;;;;13.23;8.20;;;;;;;1.28;100.00;99927.69;18527506;28;20047;-70
2021/01/12 17:26:28;;;;;;;9.20;5.90;;;;;;;1.33;100.00;99940.47;18526585;28;20051;-70
2021/01/12 17:35:32;;;;;;;9.27;6.20;;;;;;;1.41;100.00;99947.16;18526447;28;20455;-70
2021/01/12 17:44:33;;;;;;;12.82;7.78;;;;;;;1.54;100.00;99971.75;18508714;28;20047;-71
2021/01/12 17:53:37;;;;;;;16.25;9.80;;;;;;;1.44;100.00;99996.06;18526204;28;20051;-71
2021/01/12 18:02:38;;;;;;;11.00;6.60;;;;;;;1.53;100.00;100011.31;18524546;28;20548;-70
2021/01/12 18:11:44;;;;;;;11.38;7.00;;;;;;;1.57;100.00;100033.59;18524152;28;20065;-72
2021/01/12 18:20:45;;;;;;;11.00;6.75;;;;;;;1.60;100.00;100042.97;18523909;28;20182;-71
2021/01/12 18:29:50;;;;;;;13.98;8.85;;;;;;;1.68;100.00;100047.03;18523648;28;20047;-72
2021/01/12 18:38:52;;;;;;;22.75;13.02;;;;;;;1.61;100.00;100065.28;18521219;28;20050;-72
2021/01/12 18:48:00;;;;;;;19.13;11.55;;;;;;;1.65;100.00;100085.81;18521322;28;20105;-72
2021/01/12 18:57:03;;;;;;;16.35;10.43;;;;;;;1.62;100.00;100098.81;18520388;28;20101;-72
2021/01/12 19:06:08;;;;;;;21.73;11.90;;;;;;;1.60;100.00;100110.03;18519590;28;20046;-72
2021/01/12 19:15:09;;;;;;;16.75;10.30;;;;;;;1.54;100.00;100138.53;18520292;28;20054;-72
2021/01/12 19:24:11;;;;;;;17.55;10.38;;;;;;;1.52;100.00;100153.19;18520148;28;20051;-72
2021/01/12 19:33:16;;;;;;;19.23;10.73;;;;;;;1.43;100.00;100163.69;18521603;28;20066;-72
2021/01/12 19:42:24;;;;;;;16.45;10.23;;;;;;;1.11;100.00;100184.97;18587737;28;20104;-71
2021/01/12 19:51:25;;;;;;;19.63;12.43;;;;;;;1.12;100.00;100204.69;18583333;28;20404;-72
2021/01/12 20:00:29;;;;;;;34.42;19.27;;;;;;;1.05;100.00;100239.19;18517483;28;20055;-72
2021/01/12 20:19:04;;;;;;;32.65;19.77;;;;;;;1.00;100.00;100269.34;20982821;27;62845;-72
2021/01/12 20:29:05;;;;;;;28.45;16.90;;;;;;;0.68;100.00;100283.63;20974373;28;20048;-72
2021/01/12 20:39:06;;;;;;;28.88;17.67;;;;;;;0.43;100.00;100292.59;21051234;28;20549;-72
2021/01/12 20:49:07;;;;;;;28.23;16.35;;;;;;;0.15;100.00;100293.88;21053177;28;20117;-71
2021/01/12 20:59:09;;;;;;;42.42;24.05;;;;;;;-0.05;100.00;100312.97;21060203;28;20059;-72
2021/01/12 21:09:11;;;;;;;42.50;22.10;;;;;;;-0.16;100.00;100338.00;21050956;28;20048;-70
2021/01/12 21:19:12;;;;;;;44.05;22.67;;;;;;;-0.22;100.00;100335.50;21049901;28;20538;-69
2021/01/12 21:29:13;;;;;;;27.80;16.58;;;;;;;-0.26;100.00;100344.13;21003971;28;20393;-70
2021/01/12 21:39:14;;;;;;;45.42;21.63;;;;;;;-0.38;100.00;100341.69;20995422;28;20443;-69
2021/01/12 21:49:15;;;;;;;29.95;16.48;;;;;;;-0.55;100.00;100358.97;20990385;28;20063;-69
2021/01/12 21:59:16;;;;;;;44.50;23.30;;;;;;;-0.70;100.00;100374.53;20990043;28;20131;-70
2021/01/12 22:09:17;;;;;;;43.22;23.42;;;;;;;-0.67;100.00;100390.81;20993925;28;20113;-70
2021/01/12 22:19:17;;;;;;;36.58;20.90;;;;;;;-0.81;100.00;100395.19;21001045;28;20194;-71
2021/01/12 22:29:18;;;;;;;33.60;18.00;;;;;;;-0.93;100.00;100411.56;20989011;28;20048;-71
2021/01/12 22:39:20;;;;;;;37.13;19.83;;;;;;;-1.06;100.00;100425.34;20993714;28;20052;-71
2021/01/12 22:49:21;;;;;;;34.05;18.38;;;;;;;-1.14;100.00;100442.53;20991107;28;20494;-71
2021/01/12 22:59:22;;;;;;;31.20;15.35;;;;;;;-1.22;100.00;100444.31;20986871;28;20539;-70
2021/01/12 23:09:23;;;;;;;25.40;11.63;;;;;;;-1.17;100.00;100457.97;20988060;28;20496;-70
2021/01/12 23:19:24;;;;;;;26.77;13.80;;;;;;;-1.36;100.00;100479.44;20981932;28;20048;-69
2021/01/12 23:29:25;;;;;;;28.55;14.65;;;;;;;-1.46;100.00;100485.47;20977984;28;20067;-69
2021/01/12 23:39:26;;;;;;;33.38;16.92;;;;;;;-1.41;100.00;100499.16;20976747;28;20048;-69
2021/01/12 23:49:27;;;;;;;29.20;15.10;;;;;;;-1.12;100.00;100512.72;20976942;28;20052;-69
2021/01/12 23:59:28;;;;;;;30.98;16.63;;;;;;;-0.83;100.00;100519.41;20976640;28;20102;-70
